Time;durP1;ratioP1;P1;durP2;ratioP2;P2;SDS_P1;SDS_P2;PMS_P1;PMS_P2;Temp;Humidity;BMP_temperature;BMP_pressure;BME280_temperature;BME280_humidity;BME280_pressure;Samples;Min_cycle;Max_cycle;Signal;HPM_P1;HPM_P2
2021/05/18 00:00:17;;;;;;;4.10;2.45;;;;;;;;;;5103048;28;20189;-41
2021/05/18 00:02:43;;;;;;;3.10;2.20;;;;;;;;;;5113942;28;20193;-41
2021/05/18 00:05:10;;;;;;;2.90;2.17;;;;;;;;;;5115764;28;20270;-41
2021/05/18 00:07:37;;;;;;;3.80;2.45;;;;;;;;;;5115822;28;20256;-41
2021/05/18 00:12:50;;;;;;;3.03;2.33;;;;;;;;;;5113749;28;20283;-41
2021/05/18 00:15:17;;;;;;;3.05;2.38;;;;;;;;;;5115313;28;20184;-41
2021/05/18 00:17:44;;;;;;;3.03;2.42;;;;;;;;;;5115964;28;20173;-41
2021/05/18 00:20:11;;;;;;;2.60;2.10;;;;;;;;;;5115841;28;20212;-41
2021/05/18 00:22:37;;;;;;;2.53;2.10;;;;;;;;;;5114680;28;20449;-41
2021/05/18 00:25:05;;;;;;;2.10;1.90;;;;;;;;;;5114998;28;20189;-41
2021/05/18 00:27:31;;;;;;;3.88;2.33;;;;;;;;;;5113862;28;20248;-41
2021/05/18 00:29:57;;;;;;;2.60;2.05;;;;;;;;;;5095152;28;20260;-41
2021/05/18 00:32:23;;;;;;;2.58;1.98;;;;;;;;;;5077316;28;20252;-41
2021/05/18 00:34:54;;;;;;;2.53;1.95;;;;;;;;;;5111954;28;20795;-41
2021/05/18 00:37:20;;;;;;;2.22;2.03;;;;;;;;;;5115631;28;20470;-41
2021/05/18 00:39:46;;;;;;;3.20;2.10;;;;;;;;;;5115325;28;20443;-41
2021/05/18 00:42:16;;;;;;;2.70;2.00;;;;;;;;;;5115022;28;20457;-41
2021/05/18 00:44:43;;;;;;;2.75;2.00;;;;;;;;;;5111114;28;20185;-41
2021/05/18 00:47:09;;;;;;;2.47;2.08;;;;;;;;;;5108025;28;20537;-41
2021/05/18 00:49:35;;;;;;;2.45;1.85;;;;;;;;;;5107351;28;20177;-41
2021/05/18 00:52:02;;;;;;;1.90;1.67;;;;;;;;;;5114954;28;20166;-41
2021/05/18 00:54:35;;;;;;;2.28;1.70;;;;;;;;;;5114706;28;20189;-41
2021/05/18 00:59:47;;;;;;;1.58;1.48;;;;;;;;;;5102573;28;20624;-41
2021/05/18 01:02:13;;;;;;;1.65;1.45;;;;;;;;;;5094744;28;20198;-41
2021/05/18 01:04:42;;;;;;;2.15;1.55;;;;;;;;;;5111116;28;20181;-41
2021/05/18 01:07:08;;;;;;;2.78;2.00;;;;;;;;;;5114950;28;20177;-41
2021/05/18 01:09:34;;;;;;;1.52;1.35;;;;;;;;;;5115880;28;20169;-41
2021/05/18 01:12:01;;;;;;;2.45;1.70;;;;;;;;;;5118237;28;20464;-41
2021/05/18 01:14:27;;;;;;;2.03;1.80;;;;;;;;;;5117723;28;20181;-41
2021/05/18 01:16:53;;;;;;;2.78;1.70;;;;;;;;;;5119379;28;20169;-41
2021/05/18 01:19:21;;;;;;;3.15;1.80;;;;;;;;;;5115380;28;20204;-41
2021/05/18 01:21:48;;;;;;;2.35;1.55;;;;;;;;;;5115260;28;20622;-41
2021/05/18 01:24:15;;;;;;;2.45;1.80;;;;;;;;;;5118827;28;20177;-41
2021/05/18 01:26:41;;;;;;;1.67;1.58;;;;;;;;;;5118855;28;20211;-41
2021/05/18 01:29:08;;;;;;;2.22;1.50;;;;;;;;;;5119250;28;20161;-41
2021/05/18 01:31:35;;;;;;;3.35;1.70;;;;;;;;;;5117793;28;20181;-42
2021/05/18 01:34:02;;;;;;;1.60;1.45;;;;;;;;;;5118299;28;20165;-42
2021/05/18 01:36:28;;;;;;;2.22;1.40;;;;;;;;;;5118513;28;20593;-42
2021/05/18 01:44:06;;;;;;;2.53;1.52;;;;;;;;;;5118740;28;20478;-42
2021/05/18 01:46:32;;;;;;;2.30;1.27;;;;;;;;;;5118698;28;20201;-42
2021/05/18 01:49:00;;;;;;;1.85;1.40;;;;;;;;;;5117238;28;20491;-42
2021/05/18 01:51:27;;;;;;;1.48;1.20;;;;;;;;;;5117861;28;20180;-42
2021/05/18 01:53:54;;;;;;;4.13;1.65;;;;;;;;;;5118062;28;20291;-42
2021/05/18 01:56:38;;;;;;;1.88;1.40;;;;;;;;;;5118299;28;20279;-42
2021/05/18 01:59:05;;;;;;;2.05;1.40;;;;;;;;;;5118696;28;20165;-42
2021/05/18 02:01:31;;;;;;;1.40;1.30;;;;;;;;;;5116890;28;20224;-42
2021/05/18 02:03:57;;;;;;;3.67;1.15;;;;;;;;;;5118298;28;20193;-42
2021/05/18 02:06:23;;;;;;;1.45;1.13;;;;;;;;;;5118237;28;20197;-42
2021/05/18 02:08:49;;;;;;;1.35;1.10;;;;;;;;;;5117768;28;20256;-42
2021/05/18 02:11:15;;;;;;;1.25;0.95;;;;;;;;;;5117260;28;20559;-42
2021/05/18 02:13:45;;;;;;;1.33;1.08;;;;;;;;;;5118189;28;20185;-42
2021/05/18 02:16:15;;;;;;;3.22;1.30;;;;;;;;;;5102689;28;20213;-42
2021/05/18 02:24:34;;;;;;;1.38;1.25;;;;;;;;;;5117463;28;20575;-42
2021/05/18 02:26:53;;;;;;;2.75;1.50;;;;;;;;;;5117207;28;20237;-42
2021/05/18 02:29:19;;;;;;;1.30;1.17;;;;;;;;;;5115591;28;20276;-42
2021/05/18 02:31:46;;;;;;;1.90;1.20;;;;;;;;;;5117058;28;20169;-42
2021/05/18 02:34:12;;;;;;;2.10;1.20;;;;;;;;;;5117537;28;20173;-42
2021/05/18 02:36:38;;;;;;;2.88;1.45;;;;;;;;;;5117870;28;20173;-42
2021/05/18 02:39:04;;;;;;;1.75;1.35;;;;;;;;;;5116794;28;20197;-42
2021/05/18 02:41:30;;;;;;;1.20;1.10;;;;;;;;;;5117032;28;20184;-41
2021/05/18 02:44:04;;;;;;;2.17;1.20;;;;;;;;;;5117033;28;20187;-42
2021/05/18 02:49:16;;;;;;;2.10;0.90;;;;;;;;;;5117457;28;20233;-42
2021/05/18 02:51:44;;;;;;;1.58;1.20;;;;;;;;;;5116459;28;20288;-42
2021/05/18 02:54:11;;;;;;;0.88;0.88;;;;;;;;;;5117045;28;20178;-42
2021/05/18 02:56:48;;;;;;;2.20;1.10;;;;;;;;;;5116603;28;20173;-42
2021/05/18 03:01:41;;;;;;;1.02;0.95;;;;;;;;;;5102215;28;20563;-41
2021/05/18 03:04:07;;;;;;;1.20;1.00;;;;;;;;;;5117046;28;20533;-42
2021/05/18 03:06:34;;;;;;;1.02;0.95;;;;;;;;;;5116994;28;20232;-42
2021/05/18 03:09:00;;;;;;;2.30;1.00;;;;;;;;;;5116468;28;20176;-42
2021/05/18 03:11:26;;;;;;;1.30;1.20;;;;;;;;;;5115327;28;20180;-42
2021/05/18 03:13:54;;;;;;;1.70;1.23;;;;;;;;;;5109026;28;20605;-42
2021/05/18 03:16:20;;;;;;;0.98;0.80;;;;;;;;;;5107656;28;20169;-42
2021/05/18 03:18:46;;;;;;;1.73;1.13;;;;;;;;;;5116520;28;20213;-42
2021/05/18 03:21:12;;;;;;;1.25;0.88;;;;;;;;;;5116188;28;20212;-42
2021/05/18 03:23:38;;;;;;;1.00;0.90;;;;;;;;;;5115397;28;20457;-42
2021/05/18 03:26:04;;;;;;;1.23;0.90;;;;;;;;;;5109890;28;20217;-42
2021/05/18 03:28:30;;;;;;;2.08;1.05;;;;;;;;;;5116870;28;20567;-42
2021/05/18 03:36:10;;;;;;;1.83;1.05;;;;;;;;;;5116889;28;20223;-42
2021/05/18 03:38:40;;;;;;;1.23;1.00;;;;;;;;;;5114940;28;20177;-42
2021/05/18 03:41:24;;;;;;;1.35;1.10;;;;;;;;;;5104926;28;20175;-42
2021/05/18 03:44:00;;;;;;;1.00;0.90;;;;;;;;;;5116164;28;20183;-42
2021/05/18 03:54:25;;;;;;;1.20;1.10;;;;;;;;;;5115839;28;20188;-41
2021/05/18 04:10:12;;;;;;;1.20;0.95;;;;;;;;;;5115321;28;20602;-41
2021/05/18 04:19:04;;;;;;;10.90;3.10;;;;;;;;;;5105288;28;20239;-41
2021/05/18 04:49:39;;;;;;;7.50;2.50;;;;;;;;;;5105391;28;20499;-41
2021/05/18 04:51:40;;;;;;;7.45;2.63;;;;;;;;;;5106609;28;20177;-41
2021/05/18 04:59:43;;;;;;;5.18;2.13;;;;;;;;;;5114800;28;20176;-41
2021/05/18 05:02:45;;;;;;;6.22;2.00;;;;;;;;;;5102712;28;20168;-41
2021/05/18 05:10:24;;;;;;;5.90;2.05;;;;;;;;;;5115137;28;20271;-41
2021/05/18 05:15:29;;;;;;;6.78;2.30;;;;;;;;;;5103079;28;20181;-41
2021/05/18 05:17:55;;;;;;;5.85;1.90;;;;;;;;;;5099461;28;20177;-41
2021/05/18 05:20:21;;;;;;;6.28;1.73;;;;;;;;;;5113755;28;20184;-41
2021/05/18 05:22:46;;;;;;;4.40;2.00;;;;;;;;;;5114761;28;20180;-41
2021/05/18 05:25:12;;;;;;;7.93;2.30;;;;;;;;;;5115097;28;20197;-41
2021/05/18 05:27:38;;;;;;;3.53;2.20;;;;;;;;;;5114474;28;20173;-41
2021/05/18 05:30:05;;;;;;;5.85;1.90;;;;;;;;;;5115066;28;20198;-41
2021/05/18 05:32:31;;;;;;;7.38;2.10;;;;;;;;;;5114611;28;20193;-41
2021/05/18 05:34:57;;;;;;;4.63;2.03;;;;;;;;;;5114819;28;20224;-41
2021/05/18 05:37:23;;;;;;;4.20;1.80;;;;;;;;;;5114266;28;20579;-41
2021/05/18 05:39:49;;;;;;;3.40;1.65;;;;;;;;;;5115054;28;20196;-41
2021/05/18 05:42:16;;;;;;;3.47;1.83;;;;;;;;;;5113867;28;20170;-41
2021/05/18 05:44:42;;;;;;;6.53;2.17;;;;;;;;;;5114911;28;20184;-41
2021/05/18 05:47:08;;;;;;;3.22;1.83;;;;;;;;;;5115075;28;20254;-41
2021/05/18 05:49:34;;;;;;;4.15;1.95;;;;;;;;;;5114854;28;20227;-41
2021/05/18 05:52:00;;;;;;;4.43;2.03;;;;;;;;;;5114309;28;20172;-41
2021/05/18 05:54:26;;;;;;;3.63;1.80;;;;;;;;;;5114319;28;20170;-41
2021/05/18 05:56:52;;;;;;;3.75;1.40;;;;;;;;;;5116951;28;20177;-41
2021/05/18 05:59:19;;;;;;;3.75;1.40;;;;;;;;;;5118714;28;20176;-41
2021/05/18 06:01:47;;;;;;;4.57;2.13;;;;;;;;;;5118214;28;20188;-41
2021/05/18 06:04:13;;;;;;;5.72;2.00;;;;;;;;;;5118724;28;20176;-41
2021/05/18 06:06:40;;;;;;;4.88;2.45;;;;;;;;;;5116974;28;20275;-41
2021/05/18 06:09:06;;;;;;;5.05;1.95;;;;;;;;;;5109502;28;20231;-41
2021/05/18 06:11:51;;;;;;;3.00;1.48;;;;;;;;;;5108981;28;20476;-41
2021/05/18 06:14:31;;;;;;;3.03;1.52;;;;;;;;;;5118437;28;20154;-41
2021/05/18 06:46:56;;;;;;;2.92;1.42;;;;;;;;;;5117611;28;20217;-41
2021/05/18 06:49:22;;;;;;;3.95;1.70;;;;;;;;;;5117188;28;20166;-41
2021/05/18 06:51:48;;;;;;;1.85;1.23;;;;;;;;;;5102602;28;20165;-42
2021/05/18 06:54:15;;;;;;;3.22;1.40;;;;;;;;;;5117781;28;20251;-42
2021/05/18 06:56:43;;;;;;;4.05;1.60;;;;;;;;;;5116903;28;20314;-42
2021/05/18 07:01:35;;;;;;;1.65;1.30;;;;;;;;;;5096331;28;20213;-42
2021/05/18 07:04:06;;;;;;;2.05;1.20;;;;;;;;;;5108570;28;20188;-42
2021/05/18 07:06:50;;;;;;;1.88;1.30;;;;;;;;;;5109725;28;20205;-41
2021/05/18 07:09:16;;;;;;;5.28;1.15;;;;;;;;;;5100386;28;20166;-41
2021/05/18 07:11:42;;;;;;;2.10;1.33;;;;;;;;;;5116260;28;20164;-41
2021/05/18 07:14:08;;;;;;;2.55;1.20;;;;;;;;;;5097692;28;20208;-42
2021/05/18 07:16:35;;;;;;;1.33;1.08;;;;;;;;;;5107930;28;20257;-41
2021/05/18 07:19:02;;;;;;;2.55;1.00;;;;;;;;;;5096820;28;20188;-42
2021/05/18 07:21:28;;;;;;;3.28;1.30;;;;;;;;;;5087789;28;20189;-42
2021/05/18 07:23:55;;;;;;;3.15;1.38;;;;;;;;;;5103172;28;20192;-42
2021/05/18 07:26:21;;;;;;;2.33;1.55;;;;;;;;;;5102254;28;20281;-42
2021/05/18 07:28:47;;;;;;;1.20;1.10;;;;;;;;;;5097265;28;20565;-42
2021/05/18 07:31:13;;;;;;;4.35;1.30;;;;;;;;;;5116226;28;20222;-42
2021/05/18 07:33:39;;;;;;;1.70;1.10;;;;;;;;;;5116640;28;20177;-42
2021/05/18 07:36:09;;;;;;;1.27;1.15;;;;;;;;;;5115969;28;20218;-43
2021/05/18 07:38:36;;;;;;;2.03;0.90;;;;;;;;;;5116398;28;20169;-42
2021/05/18 07:41:02;;;;;;;1.10;1.00;;;;;;;;;;5116062;28;20246;-42
2021/05/18 07:43:28;;;;;;;2.28;1.70;;;;;;;;;;5116659;28;20169;-42
2021/05/18 07:46:02;;;;;;;3.45;1.25;;;;;;;;;;5116622;28;20242;-42
2021/05/18 08:05:22;;;;;;;2.95;1.40;;;;;;;;;;4998685;28;20284;-42
2021/05/18 08:07:49;;;;;;;2.50;1.40;;;;;;;;;;5089999;28;20181;-42
2021/05/18 08:10:19;;;;;;;1.65;1.10;;;;;;;;;;5115140;28;20169;-42
2021/05/18 08:12:45;;;;;;;2.03;1.27;;;;;;;;;;5114731;28;20187;-42
2021/05/18 08:15:31;;;;;;;1.50;1.40;;;;;;;;;;5115389;28;20560;-42
2021/05/18 09:47:09;;;;;;;2.30;1.10;;;;;;;;;;5115809;28;20188;-42
2021/05/18 10:38:25;;;;;;;1.00;1.00;;;;;;;;;;5117418;28;20278;-42
2021/05/18 10:41:10;;;;;;;2.47;1.27;;;;;;;;;;5116291;28;20179;-42
2021/05/18 10:43:36;;;;;;;2.00;1.13;;;;;;;;;;5117121;28;20583;-42
2021/05/18 10:46:07;;;;;;;1.45;1.30;;;;;;;;;;5117424;28;20674;-42
2021/05/18 10:48:36;;;;;;;1.38;1.27;;;;;;;;;;5116335;28;20448;-42
2021/05/18 10:51:17;;;;;;;1.85;1.02;;;;;;;;;;5116361;28;20260;-42
2021/05/18 10:54:03;;;;;;;2.30;1.30;;;;;;;;;;5116463;28;20169;-42
2021/05/18 10:56:29;;;;;;;2.03;1.08;;;;;;;;;;5117181;28;20172;-42
2021/05/18 10:58:55;;;;;;;1.80;1.20;;;;;;;;;;5113515;28;20189;-42
2021/05/18 11:01:21;;;;;;;3.33;1.30;;;;;;;;;;5105997;28;20180;-42
2021/05/18 11:03:47;;;;;;;1.88;0.95;;;;;;;;;;5116772;28;20181;-42
2021/05/18 11:06:13;;;;;;;2.58;1.30;;;;;;;;;;5116121;28;20463;-42
2021/05/18 11:08:39;;;;;;;1.73;1.10;;;;;;;;;;5116852;28;20173;-42
2021/05/18 11:11:05;;;;;;;0.85;0.82;;;;;;;;;;5116712;28;20157;-42
2021/05/18 11:13:31;;;;;;;1.92;1.00;;;;;;;;;;5115351;28;20179;-42
2021/05/18 11:15:58;;;;;;;1.55;1.00;;;;;;;;;;5116178;28;20215;-42
2021/05/18 11:18:31;;;;;;;2.08;0.90;;;;;;;;;;5116848;28;20209;-42
2021/05/18 11:21:06;;;;;;;2.70;0.90;;;;;;;;;;5116049;28;20180;-42
2021/05/18 11:23:32;;;;;;;1.30;0.88;;;;;;;;;;5116312;28;20280;-42
2021/05/18 11:26:00;;;;;;;1.65;0.82;;;;;;;;;;5115351;28;20197;-42
2021/05/18 11:28:34;;;;;;;2.45;1.00;;;;;;;;;;5116352;28;20248;-42
2021/05/18 11:31:01;;;;;;;1.55;1.13;;;;;;;;;;5114883;28;20168;-42
2021/05/18 11:33:30;;;;;;;3.65;1.15;;;;;;;;;;5096660;28;20440;-42
2021/05/18 11:36:14;;;;;;;3.63;1.10;;;;;;;;;;5094944;28;20173;-42
2021/05/18 11:38:41;;;;;;;9.65;1.80;;;;;;;;;;5094367;28;20182;-42
2021/05/18 11:41:08;;;;;;;7.80;2.67;;;;;;;;;;5094210;28;20198;-42
2021/05/18 11:43:37;;;;;;;9.27;2.47;;;;;;;;;;5096275;28;20170;-42
2021/05/18 11:46:13;;;;;;;10.18;3.08;;;;;;;;;;5096142;28;20198;-42
2021/05/18 11:48:40;;;;;;;10.93;3.50;;;;;;;;;;5109900;28;20180;-42
2021/05/18 11:51:08;;;;;;;11.25;3.78;;;;;;;;;;5115733;28;20157;-42
2021/05/18 11:53:38;;;;;;;11.90;3.70;;;;;;;;;;5095739;28;20536;-42
2021/05/18 11:56:23;;;;;;;18.77;5.25;;;;;;;;;;5089572;28;20280;-42
2021/05/18 11:58:49;;;;;;;13.55;4.68;;;;;;;;;;5116078;28;20191;-42
2021/05/18 12:01:15;;;;;;;15.27;5.97;;;;;;;;;;5115381;28;20173;-42
2021/05/18 12:03:41;;;;;;;19.30;6.22;;;;;;;;;;5113261;28;20204;-42
2021/05/18 12:06:07;;;;;;;23.67;6.18;;;;;;;;;;5095670;28;20205;-42
2021/05/18 12:08:37;;;;;;;19.52;6.03;;;;;;;;;;5114420;28;20183;-42
2021/05/18 12:11:13;;;;;;;19.73;6.15;;;;;;;;;;5115220;28;20161;-42
2021/05/18 12:13:40;;;;;;;20.33;6.35;;;;;;;;;;5115734;28;20172;-42
2021/05/18 12:16:07;;;;;;;25.52;6.95;;;;;;;;;;5114664;28;20192;-42
2021/05/18 12:18:34;;;;;;;21.85;6.28;;;;;;;;;;5116069;28;20169;-42
2021/05/18 12:21:01;;;;;;;19.73;6.38;;;;;;;;;;5113904;28;20723;-42
2021/05/18 12:23:27;;;;;;;17.15;5.47;;;;;;;;;;5115727;28;20169;-42
2021/05/18 12:26:07;;;;;;;24.95;7.10;;;;;;;;;;5115058;28;20643;-42
2021/05/18 12:28:33;;;;;;;24.92;6.53;;;;;;;;;;5104052;28;20188;-42
2021/05/18 12:31:00;;;;;;;20.27;6.28;;;;;;;;;;5113025;28;20178;-43
2021/05/18 12:33:38;;;;;;;26.63;7.30;;;;;;;;;;5107270;28;20198;-43
2021/05/18 12:36:07;;;;;;;19.65;6.57;;;;;;;;;;5111208;28;20180;-42
2021/05/18 12:38:34;;;;;;;18.58;5.90;;;;;;;;;;5109994;28;20177;-43
2021/05/18 12:41:06;;;;;;;17.70;7.60;;;;;;;;;;5114035;28;20177;-43
2021/05/18 12:43:39;;;;;;;19.02;6.63;;;;;;;;;;5108802;28;20557;-42
2021/05/18 12:46:09;;;;;;;19.85;6.53;;;;;;;;;;5097119;28;20227;-42
2021/05/18 12:48:36;;;;;;;21.27;7.30;;;;;;;;;;5095194;28;20169;-42
2021/05/18 12:51:14;;;;;;;23.92;6.80;;;;;;;;;;5094655;28;20161;-42
2021/05/18 12:53:40;;;;;;;17.98;6.55;;;;;;;;;;5107680;28;20264;-42
2021/05/18 12:56:08;;;;;;;19.77;6.55;;;;;;;;;;5115438;28;20255;-42
2021/05/18 12:58:36;;;;;;;18.65;6.70;;;;;;;;;;5115551;28;20183;-42
2021/05/18 13:01:09;;;;;;;20.92;7.53;;;;;;;;;;5097100;28;20177;-42
2021/05/18 13:03:37;;;;;;;16.95;6.25;;;;;;;;;;5095152;28;20190;-41
2021/05/18 13:06:04;;;;;;;15.05;6.13;;;;;;;;;;5112796;28;20435;-41
2021/05/18 13:08:31;;;;;;;15.35;6.15;;;;;;;;;;5112163;28;20195;-42
2021/05/18 13:13:38;;;;;;;13.27;5.50;;;;;;;;;;5112508;28;20260;-41
2021/05/18 13:16:16;;;;;;;14.57;5.45;;;;;;;;;;5115371;28;20178;-42
2021/05/18 13:18:51;;;;;;;13.15;5.47;;;;;;;;;;5113696;28;20173;-42
2021/05/18 13:21:25;;;;;;;14.85;5.55;;;;;;;;;;5114132;28;20227;-42
2021/05/18 13:26:31;;;;;;;15.38;6.00;;;;;;;;;;5105159;28;20257;-42
2021/05/18 13:29:02;;;;;;;11.48;4.20;;;;;;;;;;5094867;28;20162;-42
2021/05/18 13:31:32;;;;;;;13.82;4.75;;;;;;;;;;5109964;28;20592;-42
2021/05/18 13:33:58;;;;;;;10.38;3.83;;;;;;;;;;5114760;28;20207;-42
2021/05/18 13:36:32;;;;;;;12.10;3.75;;;;;;;;;;5114248;28;20181;-42
2021/05/18 13:38:58;;;;;;;10.15;3.58;;;;;;;;;;5114672;28;20560;-42
2021/05/18 13:41:24;;;;;;;12.57;4.57;;;;;;;;;;5113105;28;20208;-42
2021/05/18 13:43:50;;;;;;;10.55;4.32;;;;;;;;;;5115082;28;20638;-42
2021/05/18 13:46:16;;;;;;;11.68;4.40;;;;;;;;;;5114611;28;20205;-42
2021/05/18 13:48:42;;;;;;;10.88;4.13;;;;;;;;;;5113935;28;20165;-42
2021/05/18 13:51:13;;;;;;;12.20;4.95;;;;;;;;;;5107096;28;20481;-42
2021/05/18 13:53:39;;;;;;;9.98;4.45;;;;;;;;;;5114973;28;20746;-42
2021/05/18 13:56:05;;;;;;;11.00;4.30;;;;;;;;;;5114787;28;20185;-42
2021/05/18 13:58:31;;;;;;;15.38;4.45;;;;;;;;;;5108455;28;20189;-43
2021/05/18 14:00:57;;;;;;;11.48;3.97;;;;;;;;;;5113564;28;20560;-42
2021/05/18 14:03:23;;;;;;;11.68;4.10;;;;;;;;;;5115058;28;20233;-42
2021/05/18 14:05:49;;;;;;;26.08;6.95;;;;;;;;;;5114547;28;20275;-42
2021/05/18 14:08:41;;;;;;;31.88;7.53;;;;;;;;;;5114591;28;20183;-42
2021/05/18 14:11:25;;;;;;;31.20;9.02;;;;;;;;;;5103833;28;20210;-42
2021/05/18 14:13:52;;;;;;;48.25;12.70;;;;;;;;;;5106205;28;20178;-42
2021/05/18 14:16:21;;;;;;;58.72;15.30;;;;;;;;;;5101257;28;20170;-42
2021/05/18 14:18:47;;;;;;;50.30;14.05;;;;;;;;;;5118152;28;20246;-42
2021/05/18 14:21:14;;;;;;;57.85;14.77;;;;;;;;;;5117423;28;20192;-42
2021/05/18 14:26:09;;;;;;;64.80;15.20;;;;;;;;;;5117653;28;20474;-42
2021/05/18 14:28:35;;;;;;;53.85;15.23;;;;;;;;;;5118484;28;20436;-42
2021/05/18 14:31:01;;;;;;;55.05;14.50;;;;;;;;;;5115970;28;20181;-42
2021/05/18 14:33:28;;;;;;;51.75;14.93;;;;;;;;;;5117924;28;20184;-42
2021/05/18 14:35:54;;;;;;;54.22;15.25;;;;;;;;;;5117747;28;20177;-42
2021/05/18 14:38:23;;;;;;;51.10;14.05;;;;;;;;;;5117894;28;20231;-42
2021/05/18 14:43:59;;;;;;;50.22;13.80;;;;;;;;;;5118176;28;20188;-42
2021/05/18 14:57:04;;;;;;;38.95;12.35;;;;;;;;;;5116107;28;20192;-42
2021/05/18 14:59:30;;;;;;;31.92;12.32;;;;;;;;;;5117314;28;20185;-42
2021/05/18 15:01:56;;;;;;;34.50;11.38;;;;;;;;;;5109671;28;20173;-42
2021/05/18 15:04:22;;;;;;;28.90;10.20;;;;;;;;;;5097351;28;20303;-42
2021/05/18 15:06:48;;;;;;;35.17;11.13;;;;;;;;;;5106816;28;20203;-42
2021/05/18 15:09:14;;;;;;;34.08;11.88;;;;;;;;;;5116417;28;20180;-42
2021/05/18 15:11:40;;;;;;;36.28;11.15;;;;;;;;;;5116561;28;20201;-42
2021/05/18 15:14:06;;;;;;;27.98;9.45;;;;;;;;;;5117330;28;20165;-42
2021/05/18 15:16:32;;;;;;;30.23;10.70;;;;;;;;;;5117019;28;20176;-42
2021/05/18 15:19:09;;;;;;;35.38;9.63;;;;;;;;;;5112819;28;20179;-42
2021/05/18 15:21:35;;;;;;;28.60;10.18;;;;;;;;;;5114659;28;20188;-42
2021/05/18 15:24:01;;;;;;;25.77;8.55;;;;;;;;;;5116827;28;20177;-42
2021/05/18 15:26:27;;;;;;;25.45;9.48;;;;;;;;;;5116248;28;20637;-42
2021/05/18 15:28:53;;;;;;;27.88;9.82;;;;;;;;;;5115671;28;20181;-42
2021/05/18 15:31:19;;;;;;;23.60;8.75;;;;;;;;;;5115774;28;20442;-42
2021/05/18 15:33:45;;;;;;;24.92;8.30;;;;;;;;;;5115826;28;20173;-42
2021/05/18 15:36:13;;;;;;;26.80;8.27;;;;;;;;;;5114140;28;20268;-42
2021/05/18 15:38:39;;;;;;;25.00;8.77;;;;;;;;;;5115699;28;20522;-42
2021/05/18 15:41:07;;;;;;;21.02;8.45;;;;;;;;;;5115477;28;20173;-43
2021/05/18 15:43:33;;;;;;;24.33;8.75;;;;;;;;;;5113669;28;20562;-42
2021/05/18 15:45:59;;;;;;;20.83;7.70;;;;;;;;;;5111289;28;20809;-42
2021/05/18 15:48:25;;;;;;;22.73;7.63;;;;;;;;;;5108176;28;20169;-42
2021/05/18 15:50:51;;;;;;;21.77;7.93;;;;;;;;;;5112307;28;20177;-42
2021/05/18 15:53:18;;;;;;;23.13;6.93;;;;;;;;;;5115759;28;20180;-42
2021/05/18 15:55:44;;;;;;;18.40;6.70;;;;;;;;;;5113536;28;20185;-42
2021/05/18 15:58:10;;;;;;;17.23;6.72;;;;;;;;;;5105311;28;20268;-42
2021/05/18 16:00:36;;;;;;;21.42;6.82;;;;;;;;;;5101655;28;20658;-42
2021/05/18 16:03:02;;;;;;;14.43;6.25;;;;;;;;;;5115874;28;20256;-42
2021/05/18 16:05:28;;;;;;;9.50;4.57;;;;;;;;;;5115359;28;20292;-42
2021/05/18 16:08:05;;;;;;;8.50;3.40;;;;;;;;;;5114666;28;20251;-42
2021/05/18 16:10:31;;;;;;;5.63;3.03;;;;;;;;;;5114348;28;20189;-42
2021/05/18 16:12:57;;;;;;;3.38;1.65;;;;;;;;;;5115763;28;20225;-42
2021/05/18 16:15:23;;;;;;;2.65;1.70;;;;;;;;;;5103612;28;20166;-42
2021/05/18 16:17:49;;;;;;;2.28;1.52;;;;;;;;;;5095101;28;20162;-42
2021/05/18 16:20:15;;;;;;;2.13;1.40;;;;;;;;;;5101850;28;20227;-42
2021/05/18 16:22:41;;;;;;;2.35;1.58;;;;;;;;;;5096403;28;20200;-42
2021/05/18 16:25:08;;;;;;;2.85;1.80;;;;;;;;;;5102729;28;20182;-42
2021/05/18 16:27:35;;;;;;;2.78;1.60;;;;;;;;;;5094415;28;20190;-42
2021/05/18 16:30:01;;;;;;;2.53;1.73;;;;;;;;;;5095266;28;20598;-42
2021/05/18 16:32:27;;;;;;;2.78;1.85;;;;;;;;;;5094322;28;20260;-42
2021/05/18 16:34:53;;;;;;;1.80;1.48;;;;;;;;;;5112143;28;20172;-42
2021/05/18 16:37:19;;;;;;;2.95;1.70;;;;;;;;;;5114553;28;20315;-42
2021/05/18 16:39:45;;;;;;;2.58;1.70;;;;;;;;;;5105129;28;20600;-43
2021/05/18 16:42:11;;;;;;;2.17;1.60;;;;;;;;;;5098111;28;20174;-42
2021/05/18 16:44:37;;;;;;;3.00;1.58;;;;;;;;;;5099208;28;20272;-42
2021/05/18 16:47:03;;;;;;;2.80;1.65;;;;;;;;;;5105942;28;20185;-42
2021/05/18 16:49:29;;;;;;;2.38;1.42;;;;;;;;;;5113737;28;20516;-42
2021/05/18 16:51:55;;;;;;;7.05;2.53;;;;;;;;;;5112399;28;20176;-42
2021/05/18 16:54:21;;;;;;;2.78;1.60;;;;;;;;;;5114438;28;20540;-42
2021/05/18 16:56:50;;;;;;;2.58;1.60;;;;;;;;;;5099824;28;20272;-42
2021/05/18 16:59:16;;;;;;;4.38;1.70;;;;;;;;;;5108947;28;20196;-42
2021/05/18 17:01:42;;;;;;;2.25;1.65;;;;;;;;;;5113001;28;20200;-42
2021/05/18 17:04:08;;;;;;;4.47;1.98;;;;;;;;;;5110592;28;20571;-42
2021/05/18 17:06:35;;;;;;;1.88;1.65;;;;;;;;;;5110428;28;20214;-42
2021/05/18 17:09:01;;;;;;;3.80;1.73;;;;;;;;;;5111824;28;20567;-42
2021/05/18 17:11:27;;;;;;;3.63;1.70;;;;;;;;;;5113097;28;20177;-42
2021/05/18 17:13:53;;;;;;;3.30;1.63;;;;;;;;;;5114175;28;20535;-42
2021/05/18 17:16:19;;;;;;;3.38;1.35;;;;;;;;;;5110524;28;20187;-42
2021/05/18 17:18:45;;;;;;;3.20;1.45;;;;;;;;;;5114650;28;20260;-42
2021/05/18 17:21:11;;;;;;;2.45;1.73;;;;;;;;;;5113131;28;20280;-42
2021/05/18 17:23:38;;;;;;;4.82;1.75;;;;;;;;;;5114335;28;20548;-42
2021/05/18 17:26:10;;;;;;;3.45;1.40;;;;;;;;;;5113979;28;20257;-42
2021/05/18 17:28:37;;;;;;;2.15;1.27;;;;;;;;;;5108964;28;20267;-42
2021/05/18 17:31:03;;;;;;;3.90;1.40;;;;;;;;;;5113752;28;20253;-42
2021/05/18 17:33:31;;;;;;;4.43;1.33;;;;;;;;;;5114236;28;20265;-42
2021/05/18 17:35:57;;;;;;;2.65;1.23;;;;;;;;;;5112536;28;20214;-42
2021/05/18 17:38:23;;;;;;;5.25;1.48;;;;;;;;;;5085417;28;20492;-42
2021/05/18 17:40:50;;;;;;;3.42;1.42;;;;;;;;;;5114334;28;20180;-42
2021/05/18 17:43:17;;;;;;;1.92;1.23;;;;;;;;;;5112909;28;20178;-42
2021/05/18 17:45:43;;;;;;;1.75;1.33;;;;;;;;;;5110915;28;20209;-43
2021/05/18 17:48:10;;;;;;;2.00;1.15;;;;;;;;;;5114952;28;20560;-42
2021/05/18 17:50:36;;;;;;;1.92;1.20;;;;;;;;;;5113669;28;20260;-42
2021/05/18 17:53:02;;;;;;;3.53;1.52;;;;;;;;;;5116878;28;20252;-42
2021/05/18 17:55:28;;;;;;;2.20;1.38;;;;;;;;;;5117875;28;20485;-42
2021/05/18 17:57:55;;;;;;;1.52;1.33;;;;;;;;;;5117150;28;20194;-42
2021/05/18 18:00:21;;;;;;;3.25;1.10;;;;;;;;;;5117658;28;20181;-42
2021/05/18 18:02:48;;;;;;;3.67;1.38;;;;;;;;;;5118277;28;20172;-42
2021/05/18 18:05:13;;;;;;;2.10;1.27;;;;;;;;;;5117365;28;20229;-42
2021/05/18 18:07:40;;;;;;;3.75;1.48;;;;;;;;;;5116791;28;20185;-42
2021/05/18 18:10:07;;;;;;;1.95;1.13;;;;;;;;;;5116814;28;20185;-41
2021/05/18 18:12:33;;;;;;;1.73;1.35;;;;;;;;;;5117685;28;20165;-41
2021/05/18 18:14:59;;;;;;;1.52;1.00;;;;;;;;;;5118024;28;20264;-41
2021/05/18 18:17:26;;;;;;;3.38;1.38;;;;;;;;;;5116991;28;20325;-41
2021/05/18 18:19:53;;;;;;;2.33;1.25;;;;;;;;;;5116126;28;20180;-41
2021/05/18 18:22:19;;;;;;;2.72;1.30;;;;;;;;;;5117637;28;20177;-41
2021/05/18 18:24:45;;;;;;;1.75;1.10;;;;;;;;;;5111333;28;20248;-41
2021/05/18 18:27:12;;;;;;;1.83;1.23;;;;;;;;;;5115050;28;20200;-42
2021/05/18 18:29:39;;;;;;;2.28;1.35;;;;;;;;;;5117670;28;20212;-42
2021/05/18 18:32:06;;;;;;;2.40;1.10;;;;;;;;;;5117147;28;20188;-42
2021/05/18 18:34:32;;;;;;;1.98;1.00;;;;;;;;;;5117021;28;20195;-42
2021/05/18 18:37:01;;;;;;;1.52;1.02;;;;;;;;;;5117206;28;20599;-42
2021/05/18 18:39:27;;;;;;;1.98;1.13;;;;;;;;;;5116894;28;20204;-42
2021/05/18 18:41:54;;;;;;;2.97;1.50;;;;;;;;;;5111098;28;20174;-42
2021/05/18 18:44:20;;;;;;;2.85;1.30;;;;;;;;;;5099596;28;20182;-42
2021/05/18 18:46:46;;;;;;;2.92;0.93;;;;;;;;;;5102654;28;20284;-42
2021/05/18 18:49:15;;;;;;;2.78;1.10;;;;;;;;;;5116726;28;20512;-42
2021/05/18 18:51:43;;;;;;;3.72;1.05;;;;;;;;;;5115798;28;20177;-42
2021/05/18 18:54:09;;;;;;;3.15;1.20;;;;;;;;;;5116562;28;20187;-42
2021/05/18 18:56:35;;;;;;;1.48;1.17;;;;;;;;;;5105592;28;20186;-42
2021/05/18 18:59:01;;;;;;;2.25;1.38;;;;;;;;;;5115313;28;20184;-42
2021/05/18 19:01:36;;;;;;;1.60;1.20;;;;;;;;;;5112397;28;20560;-42
2021/05/18 19:04:10;;;;;;;1.85;1.10;;;;;;;;;;5114598;28;20445;-42
2021/05/18 19:12:40;;;;;;;1.48;1.30;;;;;;;;;;5116012;28;20204;-42
2021/05/18 19:14:39;;;;;;;1.33;1.10;;;;;;;;;;5116033;28;20189;-42
2021/05/18 19:17:06;;;;;;;1.42;0.95;;;;;;;;;;5116689;28;20194;-42
2021/05/18 19:19:32;;;;;;;1.98;1.20;;;;;;;;;;5115697;28;20234;-42
2021/05/18 19:21:58;;;;;;;2.13;1.27;;;;;;;;;;5113535;28;20553;-42
2021/05/18 19:24:24;;;;;;;2.25;1.20;;;;;;;;;;5116330;28;20180;-42
2021/05/18 19:26:50;;;;;;;2.20;1.20;;;;;;;;;;5116695;28;20197;-42
2021/05/18 19:29:16;;;;;;;2.05;1.42;;;;;;;;;;5115653;28;20170;-42
2021/05/18 19:31:43;;;;;;;3.35;1.30;;;;;;;;;;5116232;28;20781;-42
2021/05/18 19:34:14;;;;;;;2.92;1.30;;;;;;;;;;5116507;28;20197;-42
2021/05/18 19:37:02;;;;;;;4.25;1.60;;;;;;;;;;5107954;28;20270;-43
2021/05/18 19:45:19;;;;;;;4.03;1.48;;;;;;;;;;5034846;28;20221;-42
2021/05/18 19:48:22;;;;;;;5.70;2.05;;;;;;;;;;5105532;28;20197;-42
2021/05/18 19:50:38;;;;;;;3.83;1.80;;;;;;;;;;5111978;28;20217;-42
2021/05/18 19:53:08;;;;;;;3.50;1.67;;;;;;;;;;5116290;28;20185;-42
2021/05/18 19:55:39;;;;;;;4.78;1.90;;;;;;;;;;5113765;28;20177;-42
2021/05/18 20:19:33;;;;;;;4.05;1.67;;;;;;;;;;5106873;28;20170;-42